createdAt,value
2019-05-14T00:00:43.009Z,91.66
2019-05-14T00:01:42.932Z,91.75
2019-05-14T00:02:42.919Z,91.47
2019-05-14T00:03:42.900Z,91.56
2019-05-14T00:04:42.886Z,91.66
2019-05-14T00:05:42.860Z,91.75
2019-05-14T00:06:42.872Z,91.94
2019-05-14T00:07:42.838Z,92.32
2019-05-14T00:08:42.817Z,92.41
2019-05-14T00:09:42.798Z,92.89
2019-05-14T00:10:42.786Z,92.94
2019-05-14T00:11:42.767Z,92.75
2019-05-14T00:12:42.753Z,92.80
2019-05-14T00:13:42.733Z,92.75
2019-05-14T00:14:43.792Z,92.56
2019-05-14T00:15:42.704Z,93.23
2019-05-14T00:16:42.682Z,93.70
2019-05-14T00:17:42.656Z,93.79
2019-05-14T00:18:42.648Z,93.70
2019-05-14T00:19:42.623Z,93.79
2019-05-14T00:20:42.608Z,93.89
2019-05-14T00:21:42.599Z,93.99
2019-05-14T00:22:42.575Z,94.37
2019-05-14T00:23:42.571Z,94.37
2019-05-14T00:24:42.776Z,94.74
2019-05-14T00:25:42.521Z,94.93
2019-05-14T00:26:42.837Z,95.12
2019-05-14T00:27:42.487Z,95.22
2019-05-14T00:28:42.490Z,95.70
2019-05-14T00:29:42.456Z,95.70
2019-05-14T00:30:42.441Z,96.17
2019-05-14T00:31:42.766Z,96.26
2019-05-14T00:32:42.404Z,95.89
2019-05-14T00:33:42.386Z,95.79
2019-05-14T00:34:42.649Z,96.50
2019-05-14T00:35:42.362Z,97.07
2019-05-14T00:36:42.360Z,97.07
2019-05-14T00:37:42.323Z,97.45
2019-05-14T00:38:42.301Z,97.64
2019-05-14T00:39:42.281Z,97.83
2019-05-14T00:40:42.289Z,98.12
2019-05-14T00:41:42.262Z,98.21
2019-05-14T00:42:42.226Z,98.17
2019-05-14T00:43:42.220Z,97.97
2019-05-14T00:44:53.607Z,97.88
2019-05-14T00:45:42.203Z,97.78
2019-05-14T00:46:42.166Z,97.78
2019-05-14T00:47:42.146Z,97.69
2019-05-14T00:48:42.344Z,97.78
2019-05-14T00:49:42.607Z,97.88
2019-05-14T00:50:42.227Z,97.88
2019-05-14T00:51:42.080Z,97.78
2019-05-14T00:52:45.838Z,97.60
2019-05-14T00:53:42.245Z,97.50
2019-05-14T00:54:42.078Z,97.41
2019-05-14T00:55:42.164Z,97.31
2019-05-14T00:56:42.120Z,97.41
2019-05-14T00:57:42.780Z,97.41
2019-05-14T00:58:41.957Z,97.41
2019-05-14T00:59:42.010Z,97.50
2019-05-14T01:00:41.969Z,97.60
2019-05-14T01:01:42.495Z,97.50
2019-05-14T01:02:41.881Z,97.41
2019-05-14T01:03:41.867Z,97.41
2019-05-14T01:04:42.891Z,97.50
2019-05-14T01:05:41.829Z,97.60
2019-05-14T01:06:42.193Z,97.60
2019-05-14T01:07:42.263Z,97.78
2019-05-14T01:08:41.791Z,97.88
2019-05-14T01:09:42.272Z,97.97
2019-05-14T01:10:41.919Z,97.97
2019-05-14T01:11:42.113Z,97.69
2019-05-14T01:12:41.850Z,97.22
2019-05-14T01:13:41.873Z,96.93
2019-05-14T01:14:42.467Z,96.84
2019-05-14T01:15:41.662Z,97.03
2019-05-14T01:16:42.458Z,96.84
2019-05-14T01:17:42.138Z,97.12
2019-05-14T01:18:41.632Z,97.03
2019-05-14T01:19:42.465Z,97.60
2019-05-14T01:20:41.574Z,97.88
2019-05-14T01:21:41.832Z,97.97
2019-05-14T01:22:42.307Z,97.69
2019-05-14T01:23:41.710Z,97.50
2019-05-14T01:24:41.875Z,97.50
2019-05-14T01:25:42.223Z,97.50
2019-05-14T01:26:41.683Z,97.69
2019-05-14T01:27:41.568Z,97.60
2019-05-14T01:28:41.697Z,97.97
2019-05-14T01:29:42.535Z,97.97
2019-05-14T01:30:41.409Z,98.07
2019-05-14T01:31:41.889Z,98.26
2019-05-14T01:32:42.044Z,98.17
2019-05-14T01:33:41.352Z,98.17
2019-05-14T01:34:42.042Z,98.45
2019-05-14T01:35:42.038Z,98.45
2019-05-14T01:36:41.533Z,98.64
2019-05-14T01:37:41.801Z,98.45
2019-05-14T01:38:41.854Z,98.55
2019-05-14T01:39:42.033Z,98.83
2019-05-14T01:40:41.967Z,98.74
2019-05-14T01:41:42.281Z,98.83
2019-05-14T01:42:41.754Z,98.83
2019-05-14T01:43:41.957Z,98.93
2019-05-14T01:44:41.441Z,99.02
2019-05-14T01:45:41.751Z,99.21
2019-05-14T01:46:42.084Z,99.30
2019-05-14T01:47:41.532Z,99.30
2019-05-14T01:48:41.772Z,99.40
2019-05-14T01:49:42.753Z,99.30
2019-05-14T01:50:41.457Z,99.21
2019-05-14T01:51:42.399Z,98.83
2019-05-14T01:52:41.522Z,98.74
2019-05-14T01:53:41.691Z,99.11
2019-05-14T01:54:42.667Z,99.21
2019-05-14T01:55:41.482Z,99.11
2019-05-14T01:56:42.415Z,99.02
2019-05-14T01:57:42.503Z,98.83
2019-05-14T01:58:41.730Z,98.93
2019-05-14T01:59:42.950Z,99.21
2019-05-14T02:00:41.674Z,99.40
2019-05-14T02:01:41.516Z,99.40
2019-05-14T02:02:41.759Z,99.59
2019-05-14T02:03:41.218Z,99.69
2019-05-14T02:04:42.651Z,99.69
2019-05-14T02:05:41.579Z,99.50
2019-05-14T02:06:41.308Z,99.02
2019-05-14T02:07:41.998Z,99.11
2019-05-14T02:08:41.394Z,99.21
2019-05-14T02:09:42.008Z,98.93
2019-05-14T02:10:41.978Z,98.93
2019-05-14T02:11:41.597Z,98.93
2019-05-14T02:12:42.425Z,99.02
2019-05-14T02:13:41.418Z,99.30
2019-05-14T02:14:42.450Z,99.30
2019-05-14T02:15:43.068Z,99.11
2019-05-14T02:16:42.234Z,99.11
2019-05-14T02:17:41.393Z,99.02
2019-05-14T02:18:41.603Z,99.11
2019-05-14T02:19:42.501Z,99.40
2019-05-14T02:20:41.488Z,99.54
2019-05-14T02:21:42.545Z,99.73
2019-05-14T02:22:41.670Z,99.83
2019-05-14T02:23:42.041Z,99.92
2019-05-14T02:24:41.761Z,99.99
2019-05-14T02:25:41.250Z,99.99
2019-05-14T02:26:42.482Z,99.99
2019-05-14T02:27:41.355Z,99.99
2019-05-14T02:28:42.079Z,99.99
2019-05-14T02:29:41.631Z,99.99
2019-05-14T02:30:51.763Z,99.99
2019-05-14T02:31:40.370Z,99.99
2019-05-14T02:32:40.823Z,99.99
2019-05-14T02:33:40.301Z,99.99
2019-05-14T02:34:40.692Z,99.99
2019-05-14T02:35:40.262Z,99.99
2019-05-14T02:36:40.337Z,99.99
2019-05-14T02:37:40.614Z,99.99
2019-05-14T02:38:40.237Z,99.99
2019-05-14T02:39:41.210Z,99.99
2019-05-14T02:40:40.610Z,99.99
2019-05-14T02:41:40.181Z,99.99
2019-05-14T02:42:40.594Z,99.99
2019-05-14T02:43:40.860Z,99.99
2019-05-14T02:44:40.966Z,99.99
2019-05-14T02:45:58.653Z,99.99
2019-05-14T02:46:40.759Z,99.99
2019-05-14T02:47:40.091Z,99.99
2019-05-14T02:48:40.463Z,99.99
2019-05-14T02:49:40.249Z,99.99
2019-05-14T02:50:40.001Z,99.99
2019-05-14T02:51:40.000Z,99.99
2019-05-14T02:52:40.542Z,99.99
2019-05-14T02:53:39.949Z,99.99
2019-05-14T02:54:40.598Z,99.99
2019-05-14T02:55:39.917Z,99.99
2019-05-14T02:56:40.447Z,99.99
2019-05-14T02:57:39.876Z,99.99
2019-05-14T02:58:40.304Z,99.99
2019-05-14T02:59:40.016Z,99.99
2019-05-14T03:00:40.739Z,99.99
2019-05-14T03:01:40.830Z,99.99
2019-05-14T03:02:40.373Z,99.99
2019-05-14T03:03:40.409Z,99.99
2019-05-14T03:04:40.011Z,99.99
2019-05-14T03:05:40.298Z,99.99
2019-05-14T03:06:39.864Z,99.99
2019-05-14T03:07:39.893Z,99.99
2019-05-14T03:08:39.683Z,99.99
2019-05-14T03:09:40.421Z,99.99
2019-05-14T03:10:40.395Z,99.99
2019-05-14T03:11:40.654Z,99.99
2019-05-14T03:12:39.997Z,99.99
2019-05-14T03:13:40.261Z,99.99
2019-05-14T03:14:40.165Z,99.99
2019-05-14T03:15:39.557Z,99.99
2019-05-14T03:16:40.619Z,99.99
2019-05-14T03:17:40.436Z,99.99
2019-05-14T03:18:39.859Z,99.99
2019-05-14T03:19:40.801Z,99.99
2019-05-14T03:20:39.487Z,99.99
2019-05-14T03:21:39.779Z,99.99
2019-05-14T03:22:53.690Z,99.99
2019-05-14T03:23:39.579Z,99.99
2019-05-14T03:24:39.917Z,99.99
2019-05-14T03:25:40.126Z,99.99
2019-05-14T03:26:39.961Z,99.99
2019-05-14T03:27:40.399Z,99.99
2019-05-14T03:28:40.015Z,99.99
2019-05-14T03:29:40.174Z,99.99
2019-05-14T03:30:42.428Z,99.99
2019-05-14T03:31:42.462Z,99.99
2019-05-14T03:32:42.653Z,99.99
2019-05-14T03:33:44.096Z,99.99
2019-05-14T03:34:43.079Z,99.99
2019-05-14T03:35:44.077Z,99.99
2019-05-14T03:36:42.972Z,99.99
2019-05-14T03:37:39.289Z,99.99
2019-05-14T03:38:39.846Z,99.99
2019-05-14T03:39:39.760Z,99.99
2019-05-14T03:40:39.952Z,99.99
2019-05-14T03:41:39.960Z,99.99
2019-05-14T03:42:39.915Z,99.99
2019-05-14T03:43:39.327Z,99.99
2019-05-14T03:44:39.918Z,99.99
2019-05-14T03:45:39.349Z,99.99
2019-05-14T03:46:49.470Z,99.99
2019-05-14T03:47:39.619Z,99.99
2019-05-14T03:48:40.091Z,99.99
2019-05-14T03:49:39.890Z,99.99
2019-05-14T03:50:39.086Z,99.99
2019-05-14T03:51:39.554Z,99.99
2019-05-14T03:52:39.923Z,99.99
2019-05-14T03:53:55.087Z,99.99
2019-05-14T03:54:40.672Z,99.99
2019-05-14T03:55:40.253Z,99.99
2019-05-14T03:56:39.545Z,99.99
2019-05-14T03:57:39.862Z,99.99
2019-05-14T03:58:39.368Z,99.99
2019-05-14T03:59:40.194Z,99.99
2019-05-14T04:00:39.141Z,99.99
2019-05-14T04:01:40.127Z,99.99
2019-05-14T04:02:39.210Z,99.99
2019-05-14T04:03:39.851Z,99.99
2019-05-14T04:04:39.475Z,99.99
2019-05-14T04:05:40.150Z,99.99
2019-05-14T04:06:40.265Z,99.99
2019-05-14T04:07:39.470Z,99.99
2019-05-14T04:08:39.328Z,99.99
2019-05-14T04:09:40.002Z,99.99
2019-05-14T04:10:41.784Z,99.99
2019-05-14T04:11:39.803Z,99.99
2019-05-14T04:12:40.350Z,99.99
2019-05-14T04:13:40.547Z,99.99
2019-05-14T04:14:39.850Z,99.99
2019-05-14T04:15:39.205Z,99.99
2019-05-14T04:16:39.816Z,99.99
2019-05-14T04:17:42.206Z,99.99
2019-05-14T04:18:40.454Z,99.99
2019-05-14T04:19:39.542Z,99.99
2019-05-14T04:20:39.241Z,99.99
2019-05-14T04:21:40.022Z,99.99
2019-05-14T04:22:39.301Z,99.99
2019-05-14T04:23:39.754Z,99.99
2019-05-14T04:24:41.361Z,99.99
2019-05-14T04:25:39.032Z,99.99
2019-05-14T04:26:56.417Z,99.99
2019-05-14T04:27:40.096Z,99.99
2019-05-14T04:28:39.243Z,99.99
2019-05-14T04:29:39.558Z,99.99
2019-05-14T04:30:39.966Z,99.99
2019-05-14T04:31:38.993Z,99.99
2019-05-14T04:32:39.425Z,99.99
2019-05-14T04:33:39.292Z,99.99
2019-05-14T04:34:39.706Z,99.99
2019-05-14T04:35:40.151Z,99.99
2019-05-14T04:36:39.203Z,99.99
2019-05-14T04:37:39.872Z,99.99
2019-05-14T04:38:40.825Z,99.99
2019-05-14T04:39:39.679Z,99.88
2019-05-14T04:40:39.982Z,99.78
2019-05-14T04:41:39.329Z,99.40
2019-05-14T04:42:40.221Z,99.50
2019-05-14T04:43:40.003Z,99.59
2019-05-14T04:44:40.454Z,99.69
2019-05-14T04:45:39.547Z,99.30
2019-05-14T04:46:39.510Z,99.11
2019-05-14T04:47:42.077Z,99.02
2019-05-14T04:48:42.959Z,98.83
2019-05-14T04:49:39.941Z,98.83
2019-05-14T04:50:40.493Z,98.93
2019-05-14T04:51:39.680Z,98.93
2019-05-14T04:52:40.253Z,99.02
2019-05-14T04:53:39.433Z,99.11
2019-05-14T04:54:39.379Z,99.50
2019-05-14T04:55:40.067Z,99.40
2019-05-14T04:56:39.991Z,99.30
2019-05-14T04:57:39.244Z,99.40
2019-05-14T04:58:40.981Z,99.30
2019-05-14T04:59:39.727Z,99.21
2019-05-14T05:00:39.213Z,98.74
2019-05-14T05:01:40.087Z,98.74
2019-05-14T05:02:39.720Z,98.83
2019-05-14T05:03:40.033Z,99.02
2019-05-14T05:04:41.184Z,99.11
2019-05-14T05:05:39.424Z,99.21
2019-05-14T05:06:39.607Z,99.11
2019-05-14T05:07:40.305Z,99.11
2019-05-14T05:08:39.480Z,99.40
2019-05-14T05:09:39.863Z,99.78
2019-05-14T05:10:39.827Z,99.97
2019-05-14T05:11:39.464Z,99.50
2019-05-14T05:12:38.738Z,99.40
2019-05-14T05:13:39.735Z,99.40
2019-05-14T05:14:38.841Z,99.69
2019-05-14T05:15:39.556Z,99.40
2019-05-14T05:16:39.105Z,99.40
2019-05-14T05:17:44.307Z,99.69
2019-05-14T05:18:39.749Z,99.88
2019-05-14T05:19:39.389Z,99.88
2019-05-14T05:20:39.343Z,99.97
2019-05-14T05:21:38.787Z,99.40
2019-05-14T05:22:39.399Z,98.17
2019-05-14T05:23:38.749Z,97.88
2019-05-14T05:24:38.140Z,98.55
2019-05-14T05:25:38.427Z,99.02
2019-05-14T05:26:39.204Z,98.74
2019-05-14T05:27:38.201Z,98.45
2019-05-14T05:28:39.206Z,98.64
2019-05-14T05:29:39.281Z,98.45
2019-05-14T05:30:38.501Z,98.17
2019-05-14T05:31:38.129Z,98.17
2019-05-14T05:32:38.855Z,99.02
2019-05-14T05:33:38.397Z,99.21
2019-05-14T05:34:38.940Z,99.30
2019-05-14T05:35:39.247Z,99.69
2019-05-14T05:36:38.063Z,99.97
2019-05-14T05:37:38.465Z,99.99
2019-05-14T05:38:39.426Z,99.59
2019-05-14T05:39:38.651Z,99.02
2019-05-14T05:40:39.126Z,98.74
2019-05-14T05:41:38.486Z,98.64
2019-05-14T05:42:38.567Z,98.74
2019-05-14T05:43:39.080Z,98.55
2019-05-14T05:44:39.156Z,98.17
2019-05-14T05:45:38.091Z,98.17
2019-05-14T05:46:38.894Z,98.83
2019-05-14T05:47:38.996Z,99.30
2019-05-14T05:48:38.929Z,99.59
2019-05-14T05:49:38.190Z,99.78
2019-05-14T05:50:38.907Z,99.40
2019-05-14T05:51:39.061Z,98.69
2019-05-14T05:52:38.747Z,97.41
2019-05-14T05:53:39.044Z,97.45
2019-05-14T05:54:38.503Z,97.08
2019-05-14T05:55:39.263Z,96.69
2019-05-14T05:56:38.752Z,96.45
2019-05-14T05:57:38.994Z,96.26
2019-05-14T05:58:39.463Z,96.98
2019-05-14T05:59:39.048Z,97.36
2019-05-14T06:00:39.433Z,97.17
2019-05-14T06:01:45.042Z,97.93
2019-05-14T06:02:36.629Z,97.41
2019-05-14T06:03:39.047Z,98.41
2019-05-14T06:04:38.962Z,98.83
2019-05-14T06:05:38.935Z,98.64
2019-05-14T06:06:38.898Z,97.97
2019-05-14T06:07:36.568Z,98.17
2019-05-14T06:08:38.661Z,97.78
2019-05-14T06:09:38.099Z,97.60
2019-05-14T06:10:36.486Z,97.60
2019-05-14T06:11:38.077Z,97.78
2019-05-14T06:12:38.829Z,97.69
2019-05-14T06:13:38.810Z,97.78
2019-05-14T06:14:38.227Z,98.26
2019-05-14T06:15:47.586Z,98.55
2019-05-14T06:16:38.489Z,98.83
2019-05-14T06:17:38.851Z,99.40
2019-05-14T06:18:38.794Z,99.50
2019-05-14T06:19:38.230Z,99.02
2019-05-14T06:20:38.524Z,99.02
2019-05-14T06:21:36.303Z,99.93
2019-05-14T06:22:38.413Z,99.99
2019-05-14T06:23:38.367Z,99.99
2019-05-14T06:24:38.759Z,99.36
2019-05-14T06:25:36.231Z,99.26
2019-05-14T06:26:38.281Z,99.74
2019-05-14T06:27:38.062Z,99.99
2019-05-14T06:28:40.314Z,99.99
2019-05-14T06:29:38.319Z,98.79
2019-05-14T06:30:36.156Z,98.22
2019-05-14T06:31:38.438Z,97.83
2019-05-14T06:32:38.623Z,97.74
2019-05-14T06:33:36.102Z,97.83
2019-05-14T06:34:38.243Z,97.64
2019-05-14T06:35:36.099Z,97.64
2019-05-14T06:36:36.045Z,98.31
2019-05-14T06:37:38.280Z,98.41
2019-05-14T06:38:38.598Z,98.41
2019-05-14T06:39:36.009Z,98.50
2019-05-14T06:40:35.973Z,98.50
2019-05-14T06:41:40.140Z,98.50
2019-05-14T06:42:35.942Z,98.79
2019-05-14T06:43:35.930Z,98.60
2019-05-14T06:44:38.405Z,98.60
2019-05-14T06:45:38.218Z,98.97
2019-05-14T06:46:35.874Z,98.69
2019-05-14T06:47:38.063Z,98.41
2019-05-14T06:48:35.836Z,98.12
2019-05-14T06:49:38.333Z,98.17
2019-05-14T06:50:35.799Z,97.83
2019-05-14T06:51:35.792Z,97.69
2019-05-14T06:52:35.780Z,98.74
2019-05-14T06:53:35.753Z,99.79
2019-05-14T06:54:35.731Z,99.99
2019-05-14T06:55:35.745Z,99.99
2019-05-14T06:56:35.701Z,97.88
2019-05-14T06:57:35.685Z,98.46
2019-05-14T06:58:35.664Z,98.74
2019-05-14T06:59:37.921Z,99.17
2019-05-14T07:00:35.644Z,98.98
2019-05-14T07:01:35.648Z,98.88
2019-05-14T07:02:35.597Z,96.89
2019-05-14T07:03:36.130Z,96.22
2019-05-14T07:04:35.582Z,95.56
2019-05-14T07:05:35.552Z,95.94
2019-05-14T07:06:35.554Z,96.98
2019-05-14T07:07:39.945Z,94.70
2019-05-14T07:08:35.499Z,93.94
2019-05-14T07:09:35.485Z,93.37
2019-05-14T07:10:35.503Z,93.08
2019-05-14T07:11:39.235Z,93.84
2019-05-14T07:12:35.437Z,94.03
2019-05-14T07:13:39.148Z,93.37
2019-05-14T07:14:35.406Z,93.55
2019-05-14T07:15:35.382Z,93.94
2019-05-14T07:16:35.375Z,93.08
2019-05-14T07:17:39.235Z,93.55
2019-05-14T07:18:48.610Z,94.32
2019-05-14T07:19:35.330Z,95.46
2019-05-14T07:20:35.305Z,94.93
2019-05-14T07:21:35.297Z,95.60
2019-05-14T07:22:35.270Z,95.70
2019-05-14T07:23:35.426Z,94.84
2019-05-14T07:24:37.187Z,92.74
2019-05-14T07:25:35.224Z,92.18
2019-05-14T07:26:35.240Z,91.79
2019-05-14T07:27:35.187Z,92.36
2019-05-14T07:28:35.181Z,94.84
2019-05-14T07:29:35.155Z,94.56
2019-05-14T07:30:35.147Z,93.79
2019-05-14T07:31:35.122Z,94.56
2019-05-14T07:32:35.110Z,93.03
2019-05-14T07:33:35.142Z,92.27
2019-05-14T07:34:35.079Z,91.03
2019-05-14T07:35:35.062Z,90.84
2019-05-14T07:36:35.043Z,91.41
2019-05-14T07:37:35.030Z,91.22
2019-05-14T07:38:35.015Z,91.94
2019-05-14T07:39:34.993Z,92.60
2019-05-14T07:40:34.986Z,91.94
2019-05-14T07:41:34.981Z,92.03
2019-05-14T07:42:34.948Z,92.79
2019-05-14T07:43:34.953Z,92.22
2019-05-14T07:44:34.915Z,92.60
2019-05-14T07:45:34.895Z,93.37
2019-05-14T07:46:34.909Z,92.60
2019-05-14T07:47:34.871Z,90.41
2019-05-14T07:48:34.847Z,89.46
2019-05-14T07:49:34.838Z,89.65
2019-05-14T07:50:34.820Z,89.46
2019-05-14T07:51:34.814Z,90.41
2019-05-14T07:52:34.811Z,90.70
2019-05-14T07:53:38.949Z,90.60
2019-05-14T07:54:34.779Z,89.75
2019-05-14T07:55:34.737Z,88.51
2019-05-14T07:56:34.931Z,88.31
2019-05-14T07:57:34.837Z,88.03
2019-05-14T07:58:34.693Z,88.18
2019-05-14T07:59:34.673Z,89.32
2019-05-14T08:00:34.663Z,89.41
2019-05-14T08:01:34.647Z,88.84
2019-05-14T08:02:34.638Z,88.56
2019-05-14T08:03:34.636Z,88.93
2019-05-14T08:04:34.599Z,89.03
2019-05-14T08:05:34.597Z,88.84
2019-05-14T08:06:34.601Z,89.55
2019-05-14T08:07:34.549Z,90.12
2019-05-14T08:08:34.538Z,91.84
2019-05-14T08:09:34.526Z,91.84
2019-05-14T08:10:34.503Z,90.22
2019-05-14T08:11:34.484Z,88.22
2019-05-14T08:12:34.470Z,87.74
2019-05-14T08:13:34.488Z,87.98
2019-05-14T08:14:45.383Z,89.60
2019-05-14T08:15:34.422Z,88.55
2019-05-14T08:16:34.409Z,84.36
2019-05-14T08:17:34.403Z,84.16
2019-05-14T08:18:34.444Z,83.59
2019-05-14T08:19:34.648Z,83.02
2019-05-14T08:20:34.357Z,83.40
2019-05-14T08:21:34.336Z,84.64
2019-05-14T08:22:34.318Z,84.55
2019-05-14T08:23:34.297Z,84.83
2019-05-14T08:24:34.291Z,86.55
2019-05-14T08:25:34.266Z,86.36
2019-05-14T08:26:34.312Z,85.12
2019-05-14T08:27:34.304Z,83.12
2019-05-14T08:28:34.234Z,82.73
2019-05-14T08:29:36.836Z,82.73
2019-05-14T08:30:34.197Z,83.59
2019-05-14T08:31:34.189Z,85.69
2019-05-14T08:32:34.167Z,82.45
2019-05-14T08:33:34.142Z,79.78
2019-05-14T08:34:34.125Z,79.49
2019-05-14T08:35:35.259Z,80.73
2019-05-14T08:36:34.101Z,79.78
2019-05-14T08:37:34.117Z,77.62
2019-05-14T08:38:34.082Z,77.34
2019-05-14T08:39:34.057Z,77.91
2019-05-14T08:40:34.051Z,78.86
2019-05-14T08:41:34.030Z,79.91
2019-05-14T08:42:34.578Z,81.15
2019-05-14T08:43:34.002Z,77.95
2019-05-14T08:44:33.982Z,74.80
2019-05-14T08:45:33.972Z,75.57
2019-05-14T08:46:33.956Z,75.57
2019-05-14T08:47:33.964Z,76.42
2019-05-14T08:48:33.918Z,77.00
2019-05-14T08:49:41.901Z,74.04
2019-05-14T08:50:33.892Z,73.47
2019-05-14T08:51:33.876Z,76.04
2019-05-14T08:52:33.888Z,76.33
2019-05-14T08:53:33.854Z,76.33
2019-05-14T08:54:34.114Z,77.00
2019-05-14T08:55:33.829Z,77.67
2019-05-14T08:56:33.806Z,76.42
2019-05-14T08:57:33.897Z,75.18
2019-05-14T08:58:33.782Z,74.52
2019-05-14T08:59:33.759Z,73.47
2019-05-14T09:00:33.745Z,73.85
2019-05-14T09:01:33.737Z,72.71
2019-05-14T09:02:33.772Z,72.51
2019-05-14T09:03:33.701Z,71.08
2019-05-14T09:04:33.708Z,71.75
2019-05-14T09:05:33.680Z,72.03
2019-05-14T09:06:33.664Z,72.42
2019-05-14T09:07:33.642Z,67.93
2019-05-14T09:08:33.659Z,67.36
2019-05-14T09:09:33.627Z,67.93
2019-05-14T09:10:33.641Z,69.27
2019-05-14T09:11:36.389Z,69.65
2019-05-14T09:12:33.605Z,68.98
2019-05-14T09:13:33.561Z,69.17
2019-05-14T09:14:33.543Z,69.31
2019-05-14T09:15:33.530Z,66.60
2019-05-14T09:16:45.532Z,64.69
2019-05-14T09:17:33.529Z,63.76
2019-05-14T09:18:33.484Z,62.40
2019-05-14T09:19:33.501Z,60.10
2019-05-14T09:20:33.454Z,58.89
2019-05-14T09:21:33.447Z,58.32
2019-05-14T09:22:33.431Z,56.60
2019-05-14T09:23:33.439Z,57.99
2019-05-14T09:24:33.417Z,56.39
2019-05-14T09:25:33.409Z,52.47
2019-05-14T09:26:33.380Z,51.79
2019-05-14T09:27:33.364Z,51.87
2019-05-14T09:28:33.366Z,53.69
2019-05-14T09:29:33.363Z,54.48
2019-05-14T09:30:33.334Z,52.85
2019-05-14T09:31:33.344Z,52.73
2019-05-14T09:32:33.309Z,53.78
2019-05-14T09:33:33.294Z,54.45
2019-05-14T09:34:33.411Z,54.64
2019-05-14T09:35:33.270Z,55.51
2019-05-14T09:36:33.264Z,54.14
2019-05-14T09:37:33.250Z,55.54
2019-05-14T09:38:33.234Z,55.57
2019-05-14T09:39:33.224Z,53.78
2019-05-14T09:40:33.372Z,53.81
2019-05-14T09:41:33.200Z,53.91
2019-05-14T09:42:33.222Z,53.81
2019-05-14T09:43:33.178Z,52.75
2019-05-14T09:44:33.166Z,52.37
2019-05-14T09:45:33.169Z,52.83
2019-05-14T09:46:33.153Z,53.02
2019-05-14T09:47:33.157Z,55.51
2019-05-14T09:48:33.122Z,54.28
2019-05-14T09:49:33.113Z,52.69
2019-05-14T09:50:33.096Z,51.06
2019-05-14T09:51:33.096Z,52.45
2019-05-14T09:52:33.137Z,52.09
2019-05-14T09:53:33.065Z,49.84
2019-05-14T09:54:33.080Z,47.68
2019-05-14T09:55:33.055Z,44.79
2019-05-14T09:56:33.038Z,43.49
2019-05-14T09:57:33.038Z,41.28
2019-05-14T09:58:33.062Z,40.12
2019-05-14T09:59:33.045Z,40.30
2019-05-14T10:00:33.014Z,40.37
2019-05-14T10:01:33.000Z,41.22
2019-05-14T10:02:33.006Z,41.87
2019-05-14T10:03:32.985Z,42.54
2019-05-14T10:04:33.039Z,42.81
2019-05-14T10:05:32.979Z,44.37
2019-05-14T10:06:32.964Z,44.48
2019-05-14T10:07:32.956Z,40.83
2019-05-14T10:08:32.950Z,39.95
2019-05-14T10:09:32.944Z,40.12
2019-05-14T10:10:32.976Z,40.33
2019-05-14T10:11:32.935Z,40.72
2019-05-14T10:12:32.933Z,42.06
2019-05-14T10:13:32.997Z,41.37
2019-05-14T10:14:32.908Z,40.96
2019-05-14T10:15:32.945Z,41.56
2019-05-14T10:16:32.906Z,41.67
2019-05-14T10:17:32.894Z,40.16
2019-05-14T10:18:32.888Z,39.22
2019-05-14T10:19:32.936Z,37.68
2019-05-14T10:20:40.927Z,38.78
2019-05-14T10:21:32.882Z,37.54
2019-05-14T10:22:32.860Z,35.89
2019-05-14T10:23:32.863Z,34.72
2019-05-14T10:24:32.854Z,34.33
2019-05-14T10:25:32.854Z,34.74
2019-05-14T10:26:32.863Z,35.02
2019-05-14T10:27:32.867Z,37.27
2019-05-14T10:28:32.840Z,36.33
2019-05-14T10:29:32.834Z,35.46
2019-05-14T10:30:32.827Z,34.21
2019-05-14T10:31:32.834Z,34.30
2019-05-14T10:32:32.836Z,35.83
2019-05-14T10:33:32.817Z,35.75
2019-05-14T10:34:32.818Z,35.28
2019-05-14T10:35:32.809Z,34.24
2019-05-14T10:36:32.852Z,32.60
2019-05-14T10:37:32.807Z,34.24
2019-05-14T10:38:32.797Z,33.66
2019-05-14T10:39:32.865Z,33.65
2019-05-14T10:40:32.784Z,33.03
2019-05-14T10:41:32.781Z,33.33
2019-05-14T10:42:32.800Z,34.96
2019-05-14T10:43:32.770Z,34.17
2019-05-14T10:44:32.768Z,35.31
2019-05-14T10:45:32.764Z,36.74
2019-05-14T10:46:32.758Z,37.60
2019-05-14T10:47:32.906Z,37.24
2019-05-14T10:48:32.746Z,36.83
2019-05-14T10:49:32.749Z,37.62
2019-05-14T10:50:32.753Z,36.49
2019-05-14T10:51:32.727Z,37.06
2019-05-14T10:52:32.722Z,37.45
2019-05-14T10:53:32.754Z,36.18
2019-05-14T10:54:32.731Z,34.41
2019-05-14T10:55:32.705Z,36.51
2019-05-14T10:56:32.697Z,36.49
2019-05-14T10:57:32.720Z,38.51
2019-05-14T10:58:32.717Z,38.01
2019-05-14T10:59:32.686Z,39.54
2019-05-14T11:00:32.673Z,39.04
2019-05-14T11:01:32.660Z,38.91
2019-05-14T11:02:32.662Z,41.04
2019-05-14T11:03:32.789Z,41.61
2019-05-14T11:04:34.401Z,40.17
2019-05-14T11:05:32.631Z,40.29
2019-05-14T11:06:32.628Z,40.29
2019-05-14T11:07:32.616Z,40.00
2019-05-14T11:08:32.619Z,37.87
2019-05-14T11:09:32.610Z,37.49
2019-05-14T11:10:32.600Z,40.47
2019-05-14T11:11:32.589Z,41.42
2019-05-14T11:12:32.571Z,41.21
2019-05-14T11:13:32.567Z,42.07
2019-05-14T11:14:32.580Z,41.97
2019-05-14T11:15:32.553Z,41.97
2019-05-14T11:16:32.545Z,41.19
2019-05-14T11:17:32.523Z,42.82
2019-05-14T11:18:32.519Z,41.55
2019-05-14T11:19:32.537Z,42.41
2019-05-14T11:20:32.498Z,43.08
2019-05-14T11:21:32.496Z,42.90
2019-05-14T11:22:32.484Z,43.49
2019-05-14T11:23:32.468Z,44.59
2019-05-14T11:24:32.512Z,42.38
2019-05-14T11:25:32.456Z,42.00
2019-05-14T11:26:32.446Z,39.70
2019-05-14T11:27:32.427Z,38.74
2019-05-14T11:28:32.429Z,38.09
2019-05-14T11:29:32.415Z,36.86
2019-05-14T11:30:32.432Z,37.84
2019-05-14T11:31:34.293Z,37.35
2019-05-14T11:32:32.392Z,36.30
2019-05-14T11:33:32.375Z,38.51
2019-05-14T11:34:32.371Z,39.08
2019-05-14T11:35:32.415Z,39.28
2019-05-14T11:36:32.351Z,38.79
2019-05-14T11:37:32.343Z,38.78
2019-05-14T11:38:37.242Z,38.95
2019-05-14T11:39:32.329Z,38.93
2019-05-14T11:40:32.315Z,40.44
2019-05-14T11:41:32.449Z,41.88
2019-05-14T11:42:32.329Z,42.11
2019-05-14T11:43:32.343Z,40.77
2019-05-14T11:44:32.383Z,40.96
2019-05-14T11:45:32.354Z,41.44
2019-05-14T11:46:43.797Z,41.06
2019-05-14T11:47:32.245Z,40.56
2019-05-14T11:48:32.237Z,41.52
2019-05-14T11:49:32.245Z,41.69
2019-05-14T11:50:32.915Z,41.90
2019-05-14T11:51:58.841Z,42.90
2019-05-14T11:52:32.210Z,42.56
2019-05-14T11:53:32.195Z,40.01
2019-05-14T11:54:32.192Z,35.42
2019-05-14T11:55:32.410Z,35.08
2019-05-14T11:56:32.173Z,31.93
2019-05-14T11:57:32.162Z,30.88
2019-05-14T11:58:32.180Z,29.93
2019-05-14T11:59:32.153Z,30.05
2019-05-14T12:00:32.164Z,28.15
2019-05-14T12:01:32.148Z,26.14
2019-05-14T12:02:32.140Z,26.43
2019-05-14T12:03:32.138Z,25.96
2019-05-14T12:04:32.130Z,24.03
2019-05-14T12:05:32.116Z,23.79
2019-05-14T12:06:32.120Z,26.77
2019-05-14T12:07:32.112Z,26.37
2019-05-14T12:08:32.110Z,28.09
2019-05-14T12:09:32.108Z,28.58
2019-05-14T12:10:32.102Z,29.24
2019-05-14T12:11:32.100Z,29.21
2019-05-14T12:12:32.102Z,30.64
2019-05-14T12:13:32.982Z,31.70
2019-05-14T12:14:32.074Z,32.26
2019-05-14T12:15:32.079Z,32.34
2019-05-14T12:16:32.102Z,32.81
2019-05-14T12:17:32.069Z,33.37
2019-05-14T12:18:32.082Z,32.18
2019-05-14T12:19:32.060Z,33.11
2019-05-14T12:20:32.046Z,34.82
2019-05-14T12:21:32.045Z,36.93
2019-05-14T12:22:32.044Z,39.14
2019-05-14T12:23:32.056Z,36.84
2019-05-14T12:24:32.023Z,37.41
2019-05-14T12:25:32.020Z,37.80
2019-05-14T12:26:32.068Z,38.18
2019-05-14T12:27:32.008Z,39.72
2019-05-14T12:28:32.023Z,39.03
2019-05-14T12:29:31.999Z,37.85
2019-05-14T12:30:31.996Z,38.91
2019-05-14T12:31:31.976Z,39.77
2019-05-14T12:32:31.956Z,40.92
2019-05-14T12:33:32.052Z,41.21
2019-05-14T12:34:31.975Z,41.50
2019-05-14T12:35:31.957Z,41.78
2019-05-14T12:36:32.006Z,38.62
2019-05-14T12:37:31.921Z,38.72
2019-05-14T12:38:31.945Z,40.94
2019-05-14T12:39:31.899Z,38.83
2019-05-14T12:40:31.897Z,39.72
2019-05-14T12:41:31.885Z,40.39
2019-05-14T12:42:31.889Z,40.10
2019-05-14T12:43:31.862Z,38.96
2019-05-14T12:44:31.854Z,40.50
2019-05-14T12:45:31.841Z,39.64
2019-05-14T12:46:31.847Z,38.96
2019-05-14T12:47:31.828Z,40.31
2019-05-14T12:48:31.826Z,42.33
2019-05-14T12:49:31.821Z,40.00
2019-05-14T12:50:31.953Z,39.72
2019-05-14T12:51:31.820Z,39.43
2019-05-14T12:52:31.784Z,39.43